createdAt,value
2022-08-23T00:02:23.547Z,47.50
2022-08-23T00:07:28.076Z,47.46
2022-08-23T00:12:33.949Z,47.30
2022-08-23T00:17:36.829Z,47.19
2022-08-23T00:22:40.840Z,46.67
2022-08-23T00:27:45.507Z,46.88
2022-08-23T00:32:48.674Z,47.21
2022-08-23T00:38:31.744Z,46.83
2022-08-23T00:43:35.609Z,46.97
2022-08-23T00:48:40.517Z,46.48
2022-08-23T00:53:47.551Z,46.63
2022-08-23T00:58:51.936Z,46.52
2022-08-23T01:04:04.459Z,46.95
2022-08-23T01:09:12.189Z,47.11
2022-08-23T01:14:20.948Z,47.44
2022-08-23T01:19:31.695Z,47.51
2022-08-23T01:24:59.588Z,47.19
2022-08-23T01:30:05.830Z,47.61
2022-08-23T01:35:09.501Z,47.47
2022-08-23T01:40:14.399Z,47.72
2022-08-23T01:45:17.838Z,47.50
2022-08-23T01:50:21.260Z,47.40
2022-08-23T01:55:25.963Z,47.61
2022-08-23T02:00:32.823Z,48.11
2022-08-23T02:05:37.253Z,48.08
2022-08-23T02:10:41.750Z,48.09
2022-08-23T02:15:45.620Z,48.46
2022-08-23T02:20:50.940Z,48.82
2022-08-23T02:25:55.988Z,49.19
2022-08-23T02:30:58.861Z,49.24
2022-08-23T02:36:02.924Z,49.25
2022-08-23T02:41:07.753Z,48.86
2022-08-23T02:46:10.933Z,48.94
2022-08-23T02:51:14.252Z,49.16
2022-08-23T02:56:21.842Z,49.17
2022-08-23T03:01:28.546Z,49.49
2022-08-23T03:06:35.717Z,49.64
2022-08-23T03:11:45.920Z,49.50
2022-08-23T03:16:49.341Z,49.85
2022-08-23T03:21:52.112Z,49.61
2022-08-23T03:26:58.891Z,49.65
2022-08-23T03:32:02.328Z,49.92
2022-08-23T03:37:08.704Z,49.77
2022-08-23T03:42:13.738Z,49.81
2022-08-23T03:47:17.393Z,49.70
2022-08-23T03:52:22.100Z,49.55
2022-08-23T03:57:26.644Z,49.65
2022-08-23T04:02:29.432Z,49.63
2022-08-23T04:07:32.380Z,49.44
2022-08-23T04:12:36.952Z,49.62
2022-08-23T04:17:42.569Z,49.58
2022-08-23T04:22:46.192Z,49.62
2022-08-23T04:27:53.018Z,49.74
2022-08-23T04:32:55.889Z,50.05
2022-08-23T04:37:59.960Z,50.02
2022-08-23T04:43:05.034Z,50.16
2022-08-23T04:48:10.953Z,50.44
2022-08-23T04:53:19.120Z,50.74
2022-08-23T04:58:38.531Z,51.29
2022-08-23T05:03:41.616Z,51.59
2022-08-23T05:08:44.659Z,51.64
2022-08-23T05:13:49.773Z,51.36
2022-08-23T05:18:52.981Z,51.48
2022-08-23T05:23:55.837Z,51.65
2022-08-23T05:29:03.091Z,51.74
2022-08-23T05:34:11.628Z,51.59
2022-08-23T05:39:36.672Z,51.69
2022-08-23T05:44:45.786Z,51.52
2022-08-23T05:49:50.154Z,51.49
2022-08-23T05:54:53.631Z,51.52
2022-08-23T06:00:20.972Z,51.13
2022-08-23T06:05:28.011Z,50.73
2022-08-23T06:10:32.379Z,50.32
2022-08-23T06:15:46.645Z,49.68
2022-08-23T06:20:49.866Z,49.81
2022-08-23T06:26:01.802Z,49.57
2022-08-23T06:31:12.029Z,49.48
2022-08-23T06:36:19.928Z,48.88
2022-08-23T06:41:42.955Z,48.92
2022-08-23T06:47:05.275Z,48.31
2022-08-23T06:52:09.495Z,47.83
2022-08-23T06:57:33.308Z,47.36
2022-08-23T07:02:56.021Z,46.44
2022-08-23T07:08:34.490Z,46.26
2022-08-23T07:13:37.814Z,45.58
2022-08-23T07:18:42.487Z,45.02
2022-08-23T07:23:46.651Z,44.31
2022-08-23T07:28:50.702Z,44.13
2022-08-23T07:33:58.791Z,43.45
2022-08-23T07:39:02.617Z,43.24
2022-08-23T07:44:08.667Z,42.66
2022-08-23T07:49:14.193Z,42.01
2022-08-23T07:54:21.324Z,42.24
2022-08-23T07:59:34.635Z,41.09
2022-08-23T08:04:53.934Z,40.97
2022-08-23T08:09:57.078Z,40.39
2022-08-23T08:15:00.577Z,40.56
2022-08-23T08:20:13.493Z,40.08
2022-08-23T08:25:38.588Z,40.06
2022-08-23T08:30:44.591Z,39.61
2022-08-23T08:35:57.594Z,39.22
2022-08-23T08:41:12.661Z,39.00
2022-08-23T08:46:23.509Z,39.05
2022-08-23T08:51:42.833Z,38.34
2022-08-23T08:56:50.759Z,37.86
2022-08-23T09:02:02.726Z,36.96
2022-08-23T09:07:23.012Z,35.86
2022-08-23T09:12:38.797Z,35.72
2022-08-23T09:17:45.429Z,35.56
2022-08-23T09:22:54.002Z,35.47
2022-08-23T09:28:06.228Z,35.22
2022-08-23T09:33:17.197Z,35.28
2022-08-23T09:38:22.079Z,34.00
2022-08-23T09:43:48.197Z,34.24
2022-08-23T09:48:55.189Z,34.02
2022-08-23T09:54:11.571Z,32.65
2022-08-23T09:59:26.934Z,33.42
2022-08-23T10:04:42.370Z,33.50
2022-08-23T10:09:48.673Z,34.16
2022-08-23T10:14:52.128Z,34.74
2022-08-23T10:20:13.836Z,34.94
2022-08-23T10:25:23.883Z,34.51
2022-08-23T10:30:37.162Z,33.99
2022-08-23T10:35:47.860Z,33.10
2022-08-23T10:41:02.969Z,32.73
2022-08-23T10:46:08.677Z,31.00
2022-08-23T10:51:22.692Z,30.97
2022-08-23T10:56:37.492Z,31.28
2022-08-23T11:01:54.342Z,30.22
2022-08-23T11:07:00.237Z,27.91
2022-08-23T11:12:21.604Z,27.56
2022-08-23T11:17:29.749Z,28.19
2022-08-23T11:22:34.314Z,27.69
2022-08-23T11:27:41.453Z,25.78
2022-08-23T11:32:50.228Z,25.69
2022-08-23T11:38:02.306Z,25.38
2022-08-23T11:43:21.493Z,25.11
2022-08-23T11:48:43.386Z,25.59
2022-08-23T11:54:35.625Z,25.84
2022-08-23T12:00:22.710Z,26.44
2022-08-23T12:06:08.278Z,25.02
2022-08-23T12:11:12.158Z,24.55
2022-08-23T12:16:38.194Z,25.79
2022-08-23T12:21:50.069Z,26.61
2022-08-23T12:27:03.745Z,25.18
2022-08-23T12:32:20.420Z,25.10
2022-08-23T12:37:33.869Z,24.76
2022-08-23T12:42:38.829Z,23.31
2022-08-23T12:47:45.400Z,24.63
2022-08-23T12:52:58.410Z,24.53
2022-08-23T12:58:02.061Z,24.70
2022-08-23T13:03:12.375Z,25.20
2022-08-23T13:08:19.149Z,26.00
2022-08-23T13:13:28.903Z,24.82
2022-08-23T13:18:42.612Z,24.62
2022-08-23T13:23:45.658Z,23.74
2022-08-23T13:29:06.161Z,26.08
2022-08-23T13:34:10.313Z,25.92
2022-08-23T13:39:14.513Z,25.63
2022-08-23T13:44:21.060Z,26.91
2022-08-23T13:49:29.388Z,26.71
2022-08-23T13:54:33.664Z,25.45
2022-08-23T13:59:40.082Z,23.74
2022-08-23T14:04:44.967Z,24.12
2022-08-23T14:09:50.115Z,23.16
2022-08-23T14:14:55.165Z,23.70
2022-08-23T14:25:22.139Z,25.17
2022-08-23T14:30:29.779Z,23.72
2022-08-23T14:35:34.064Z,23.96
2022-08-23T14:40:37.585Z,22.78
2022-08-23T14:45:40.654Z,22.34
2022-08-23T14:50:46.148Z,23.07
2022-08-23T14:56:01.114Z,23.23
2022-08-23T15:01:14.055Z,22.50
2022-08-23T15:06:20.738Z,23.00
2022-08-23T15:16:47.070Z,24.52
2022-08-23T15:21:51.250Z,24.08
2022-08-23T15:26:59.551Z,25.27
2022-08-23T15:32:02.345Z,25.29
2022-08-23T15:37:06.544Z,24.90
2022-08-23T15:42:09.552Z,24.61
2022-08-23T15:47:19.326Z,25.93
2022-08-23T15:52:23.624Z,25.96
2022-08-23T15:57:29.108Z,27.36
2022-08-23T16:02:51.074Z,27.47
2022-08-23T16:07:59.621Z,27.17
2022-08-23T16:13:03.666Z,26.85
2022-08-23T16:18:06.852Z,26.52
2022-08-23T16:23:11.422Z,27.20
2022-08-23T16:28:14.317Z,27.59
2022-08-23T16:33:17.141Z,27.41
2022-08-23T16:38:21.360Z,27.81
2022-08-23T16:43:24.139Z,28.03
2022-08-23T16:48:26.945Z,27.60
2022-08-23T16:53:31.177Z,28.35
2022-08-23T16:58:34.932Z,29.24
2022-08-23T17:03:37.870Z,29.05
2022-08-23T17:08:42.101Z,31.22
2022-08-23T17:13:45.294Z,30.92
2022-08-23T17:18:48.557Z,32.87
2022-08-23T17:23:58.579Z,31.17
2022-08-23T17:29:01.952Z,32.59
2022-08-23T17:34:04.877Z,32.92
2022-08-23T17:39:11.883Z,31.36
2022-08-23T17:44:15.308Z,31.72
2022-08-23T17:49:21.184Z,32.46
2022-08-23T17:54:25.341Z,32.09
2022-08-23T17:59:28.780Z,32.16
2022-08-23T18:04:31.941Z,33.32
2022-08-23T18:09:40.110Z,32.52
2022-08-23T18:14:51.938Z,33.50
2022-08-23T18:19:54.941Z,32.68
2022-08-23T18:24:59.099Z,32.94
2022-08-23T18:30:01.921Z,33.42
2022-08-23T18:35:06.251Z,33.49
2022-08-23T18:40:12.128Z,33.49
2022-08-23T18:45:15.060Z,33.83
2022-08-23T18:50:19.530Z,33.67
2022-08-23T18:55:23.870Z,33.55
2022-08-23T19:00:26.675Z,33.51
2022-08-23T19:05:42.147Z,33.56
2022-08-23T19:10:47.408Z,33.75
2022-08-23T19:15:52.497Z,33.78
2022-08-23T19:20:55.814Z,33.73
2022-08-23T19:26:00.432Z,34.02
2022-08-23T19:31:03.209Z,34.15
2022-08-23T19:36:06.552Z,34.34
2022-08-23T19:41:10.804Z,34.48
2022-08-23T19:46:16.123Z,34.53
2022-08-23T19:51:20.865Z,34.35
2022-08-23T19:56:25.033Z,34.80
2022-08-23T20:01:30.177Z,34.65
2022-08-23T20:06:34.357Z,34.95
2022-08-23T20:11:39.645Z,35.17
2022-08-23T20:16:43.052Z,35.14
2022-08-23T20:21:45.876Z,35.28
2022-08-23T20:26:50.956Z,35.33
2022-08-23T20:31:56.302Z,35.68
2022-08-23T20:36:59.146Z,35.86
2022-08-23T20:42:03.535Z,36.13
2022-08-23T20:47:11.279Z,36.04
2022-08-23T20:52:14.228Z,36.47
2022-08-23T20:57:18.525Z,36.71
2022-08-23T21:02:21.374Z,37.01
2022-08-23T21:07:24.174Z,37.21
2022-08-23T21:12:32.368Z,37.65
2022-08-23T21:17:35.315Z,37.97
2022-08-23T21:22:38.171Z,38.03
2022-08-23T21:27:42.410Z,38.02
2022-08-23T21:32:45.504Z,38.18
2022-08-23T21:37:48.373Z,38.37
2022-08-23T21:42:52.685Z,38.30
2022-08-23T21:47:55.671Z,38.70
2022-08-23T21:52:58.738Z,38.86
2022-08-23T21:58:02.910Z,38.92
2022-08-23T22:03:06.709Z,39.27
2022-08-23T22:08:10.247Z,39.77
2022-08-23T22:13:18.463Z,39.50
2022-08-23T22:18:21.316Z,39.79
2022-08-23T22:23:24.102Z,40.06
2022-08-23T22:28:31.329Z,40.15
2022-08-23T22:33:35.524Z,40.27
2022-08-23T22:38:39.704Z,40.57
2022-08-23T22:43:44.088Z,41.04
2022-08-23T22:48:48.210Z,41.15
2022-08-23T22:53:53.459Z,41.35
2022-08-23T22:58:58.638Z,41.73
2022-08-23T23:04:03.361Z,41.95
2022-08-23T23:09:07.935Z,42.13
2022-08-23T23:14:16.173Z,42.05
2022-08-23T23:19:36.584Z,42.54
2022-08-23T23:24:41.009Z,42.61
2022-08-23T23:29:45.182Z,43.08
2022-08-23T23:34:48.318Z,43.54
2022-08-23T23:39:51.187Z,43.92
2022-08-23T23:44:55.339Z,44.23
2022-08-23T23:49:58.557Z,44.28
2022-08-23T23:55:03.157Z,44.15
